Time;durP1;ratioP1;P1;durP2;ratioP2;P2;SDS_P1;SDS_P2;PMS_P1;PMS_P2;Temp;Humidity;BMP_temperature;BMP_pressure;BME280_temperature;BME280_humidity;BME280_pressure;Samples;Min_cycle;Max_cycle;Signal;HPM_P1;HPM_P2
2023/05/13 00:01:13;;;;;;;8.23;4.43;;;17.60;61.80;;;;;;5082468;28;20474;-75
2023/05/13 00:03:40;;;;;;;6.13;4.57;;;17.50;61.70;;;;;;5085158;28;20462;-74
2023/05/13 00:06:07;;;;;;;11.90;4.83;;;17.60;61.80;;;;;;5084535;28;20481;-76
2023/05/13 00:08:34;;;;;;;5.80;5.20;;;17.60;61.70;;;;;;5089704;28;20492;-77
2023/05/13 00:11:02;;;;;;;7.97;5.67;;;17.60;61.60;;;;;;5090369;28;20512;-76
2023/05/13 00:13:30;;;;;;;4.63;4.10;;;17.60;61.70;;;;;;5090213;28;20497;-77
2023/05/13 00:15:57;;;;;;;7.43;4.57;;;17.60;61.80;;;;;;5087951;28;20546;-76
2023/05/13 00:18:24;;;;;;;8.07;4.90;;;17.60;61.70;;;;;;5086472;28;20978;-74
2023/05/13 00:20:51;;;;;;;4.97;4.57;;;17.60;61.80;;;;;;5085317;28;20500;-75
2023/05/13 00:23:18;;;;;;;6.87;4.27;;;17.50;61.90;;;;;;5081751;28;20908;-76
2023/05/13 00:25:45;;;;;;;5.13;4.63;;;17.50;62.00;;;;;;5077569;28;20498;-76
2023/05/13 00:28:13;;;;;;;7.30;4.60;;;17.50;62.10;;;;;;5078295;28;20545;-75
2023/05/13 00:30:42;;;;;;;10.50;5.63;;;17.50;62.20;;;;;;5092731;28;20517;-75
2023/05/13 00:33:09;;;;;;;6.50;5.03;;;17.50;62.30;;;;;;5094704;28;20454;-76
2023/05/13 00:35:36;;;;;;;5.97;5.27;;;17.40;62.30;;;;;;5098020;28;20469;-75
2023/05/13 00:38:07;;;;;;;10.33;5.20;;;17.40;62.50;;;;;;5094596;28;20473;-76
2023/05/13 00:40:39;;;;;;;9.23;4.87;;;17.30;62.50;;;;;;5095191;28;20491;-75
2023/05/13 00:43:06;;;;;;;5.53;4.90;;;17.30;62.60;;;;;;5094238;28;20492;-74
2023/05/13 00:45:36;;;;;;;8.90;5.20;;;17.30;62.90;;;;;;5094762;28;20480;-75
2023/05/13 00:48:06;;;;;;;8.20;5.00;;;17.30;62.90;;;;;;5094695;28;20531;-76
2023/05/13 00:50:34;;;;;;;5.33;4.10;;;17.30;62.70;;;;;;5094223;28;20548;-76
2023/05/13 00:53:03;;;;;;;6.10;4.43;;;17.30;62.80;;;;;;5092524;28;20476;-76
2023/05/13 00:55:30;;;;;;;4.30;3.90;;;17.30;62.90;;;;;;5093027;28;20496;-75
2023/05/13 00:57:57;;;;;;;7.40;5.13;;;17.30;62.90;;;;;;5092124;28;20477;-75
2023/05/13 01:00:25;;;;;;;15.70;5.43;;;17.30;63.00;;;;;;5093008;28;20572;-76
2023/05/13 01:03:02;;;;;;;6.53;4.70;;;17.30;63.00;;;;;;5093149;28;20504;-75
2023/05/13 01:05:37;;;;;;;7.80;4.83;;;17.30;63.00;;;;;;5094097;28;20472;-76
2023/05/13 01:08:12;;;;;;;6.50;4.63;;;17.20;63.10;;;;;;5092172;28;20526;-75
2023/05/13 01:10:45;;;;;;;8.70;4.97;;;17.20;63.20;;;;;;5093121;28;20861;-75
2023/05/13 01:13:15;;;;;;;5.73;4.67;;;17.20;63.30;;;;;;5093266;28;20481;-76
2023/05/13 01:15:49;;;;;;;6.03;5.53;;;17.20;63.60;;;;;;5092869;28;20493;-76
2023/05/13 01:18:24;;;;;;;10.03;5.77;;;17.20;63.70;;;;;;5092208;28;20534;-75
2023/05/13 01:20:51;;;;;;;7.00;5.90;;;17.10;63.70;;;;;;5092854;28;20468;-75
2023/05/13 01:23:20;;;;;;;6.80;5.33;;;17.10;63.80;;;;;;5092651;28;20445;-76
2023/05/13 01:25:47;;;;;;;5.70;5.10;;;17.10;63.80;;;;;;5092443;28;20986;-76
2023/05/13 01:28:15;;;;;;;7.13;4.80;;;17.10;64.00;;;;;;5091974;28;20554;-76
2023/05/13 01:30:42;;;;;;;6.23;5.53;;;17.10;64.00;;;;;;5096345;28;20489;-77
2023/05/13 01:33:09;;;;;;;4.87;4.30;;;17.10;64.10;;;;;;5095757;28;20519;-76
2023/05/13 01:35:36;;;;;;;6.27;4.33;;;17.00;64.20;;;;;;5095709;28;20466;-76
2023/05/13 01:38:04;;;;;;;6.20;5.30;;;17.00;64.30;;;;;;5095686;28;20498;-76
2023/05/13 01:40:33;;;;;;;5.70;5.20;;;17.00;64.30;;;;;;5096095;28;20457;-76
2023/05/13 01:43:00;;;;;;;7.23;5.03;;;17.00;64.30;;;;;;5095506;28;20829;-75
2023/05/13 01:45:28;;;;;;;8.10;5.43;;;17.00;65.30;;;;;;5095880;28;20500;-76
2023/05/13 01:47:55;;;;;;;6.23;4.47;;;17.00;64.40;;;;;;5095921;28;20473;-75
2023/05/13 01:50:22;;;;;;;5.27;4.73;;;17.00;64.60;;;;;;5095360;28;20792;-76
2023/05/13 01:52:49;;;;;;;6.47;4.37;;;17.00;64.60;;;;;;5095629;28;20872;-76
2023/05/13 01:55:16;;;;;;;5.70;5.20;;;17.00;64.70;;;;;;5095035;28;20842;-76
2023/05/13 01:57:45;;;;;;;5.03;4.60;;;16.90;64.70;;;;;;5096018;28;20514;-74
2023/05/13 02:00:13;;;;;;;6.60;4.53;;;16.90;64.50;;;;;;5094733;28;20483;-74
2023/05/13 02:02:40;;;;;;;7.37;4.30;;;16.90;64.70;;;;;;5094023;28;20919;-75
2023/05/13 02:05:08;;;;;;;4.87;4.33;;;16.90;64.90;;;;;;5094642;27;20691;-75
2023/05/13 02:07:35;;;;;;;5.03;4.63;;;16.90;65.00;;;;;;5095668;28;20798;-77
2023/05/13 02:10:02;;;;;;;7.90;5.40;;;16.90;65.10;;;;;;5085224;28;20466;-77
2023/05/13 02:12:29;;;;;;;5.00;4.47;;;16.80;65.00;;;;;;5075416;28;20489;-76
2023/05/13 02:14:57;;;;;;;7.93;5.27;;;16.80;65.00;;;;;;5094439;28;20568;-76
2023/05/13 02:17:24;;;;;;;10.70;5.60;;;16.80;65.00;;;;;;5090207;28;20505;-76
2023/05/13 02:19:52;;;;;;;8.60;5.60;;;16.70;65.00;;;;;;5074671;28;20470;-76
2023/05/13 02:22:19;;;;;;;6.13;5.37;;;16.70;66.00;;;;;;5074488;28;20477;-75
2023/05/13 02:24:46;;;;;;;5.50;4.97;;;16.70;65.40;;;;;;5075090;28;20474;-76
2023/05/13 02:27:15;;;;;;;7.20;5.50;;;16.70;65.40;;;;;;5089411;28;20518;-77
2023/05/13 02:29:42;;;;;;;5.17;4.77;;;16.60;65.40;;;;;;5094760;28;20461;-76
2023/05/13 02:32:10;;;;;;;6.87;4.57;;;16.60;65.40;;;;;;5094479;28;20975;-76
2023/05/13 02:34:37;;;;;;;5.73;5.23;;;16.60;65.60;;;;;;5095021;28;20469;-76
2023/05/13 02:37:06;;;;;;;7.30;4.80;;;16.60;65.60;;;;;;5093935;28;20586;-77
2023/05/13 02:39:33;;;;;;;5.23;4.73;;;16.60;65.60;;;;;;5094990;28;20462;-76
2023/05/13 02:42:00;;;;;;;7.27;5.47;;;16.60;65.70;;;;;;5103584;28;20859;-76
2023/05/13 02:44:27;;;;;;;6.40;5.47;;;16.50;65.70;;;;;;5113503;27;20472;-77
2023/05/13 02:46:53;;;;;;;5.33;4.73;;;16.50;66.00;;;;;;5114438;27;20487;-76
2023/05/13 02:49:22;;;;;;;6.30;5.80;;;16.40;65.90;;;;;;5113424;27;21000;-76
2023/05/13 02:51:49;;;;;;;7.83;6.47;;;16.50;66.00;;;;;;5090893;28;20559;-77
2023/05/13 02:54:16;;;;;;;6.20;5.60;;;16.40;66.00;;;;;;5074196;28;20955;-76
2023/05/13 02:56:43;;;;;;;7.13;5.30;;;16.40;65.90;;;;;;5073849;28;20510;-76
2023/05/13 02:59:10;;;;;;;7.83;5.60;;;16.40;66.10;;;;;;5074183;28;20532;-77
2023/05/13 03:01:37;;;;;;;6.80;5.57;;;16.30;66.10;;;;;;5072930;28;20797;-75
2023/05/13 03:04:04;;;;;;;5.90;5.30;;;16.30;66.10;;;;;;5074027;28;20458;-75
2023/05/13 03:06:32;;;;;;;5.50;4.97;;;16.30;65.90;;;;;;5073942;28;20466;-75
2023/05/13 03:08:59;;;;;;;7.50;5.23;;;16.30;65.70;;;;;;5073206;28;20955;-76
2023/05/13 03:11:26;;;;;;;5.83;5.13;;;16.30;65.70;;;;;;5073484;28;20498;-76
2023/05/13 03:13:53;;;;;;;11.80;6.00;;;16.30;65.70;;;;;;5073209;28;20557;-77
2023/05/13 03:16:20;;;;;;;5.23;4.83;;;16.30;65.30;;;;;;5073549;28;20498;-76
2023/05/13 03:18:47;;;;;;;11.90;5.23;;;16.30;65.60;;;;;;5073123;28;20458;-77
2023/05/13 03:21:14;;;;;;;10.03;5.90;;;16.20;65.50;;;;;;5073346;28;20540;-76
2023/05/13 03:23:46;;;;;;;5.70;5.30;;;16.20;65.70;;;;;;5072744;28;20964;-76
2023/05/13 03:26:13;;;;;;;7.67;5.40;;;16.20;65.80;;;;;;5073482;28;20535;-76
2023/05/13 03:28:40;;;;;;;6.80;5.00;;;16.20;65.70;;;;;;5072504;28;20473;-76
2023/05/13 03:31:07;;;;;;;8.00;5.53;;;16.10;65.70;;;;;;5073419;28;20454;-76
2023/05/13 03:33:34;;;;;;;6.20;5.23;;;16.10;65.70;;;;;;5070494;28;20473;-76
2023/05/13 03:36:01;;;;;;;5.37;4.87;;;16.10;65.70;;;;;;5080846;28;20572;-75
2023/05/13 03:38:28;;;;;;;5.63;5.13;;;16.10;65.80;;;;;;5073422;28;20862;-76
2023/05/13 03:40:56;;;;;;;4.80;4.40;;;16.10;65.80;;;;;;5072737;28;20471;-76
2023/05/13 03:43:23;;;;;;;6.47;5.37;;;16.00;65.80;;;;;;5073423;28;20467;-76
2023/05/13 03:45:51;;;;;;;8.30;4.87;;;16.00;65.80;;;;;;5072498;28;20619;-77
2023/05/13 03:48:18;;;;;;;6.87;4.83;;;16.10;66.00;;;;;;5073174;28;20785;-75
2023/05/13 03:50:45;;;;;;;8.10;6.03;;;16.00;65.70;;;;;;5072832;28;20474;-74
2023/05/13 03:53:12;;;;;;;9.80;6.37;;;15.90;65.90;;;;;;5073448;28;20523;-76
2023/05/13 03:55:39;;;;;;;7.27;5.63;;;15.90;66.10;;;;;;5072458;28;20544;-74
2023/05/13 03:58:13;;;;;;;7.27;5.53;;;16.00;66.30;;;;;;5072104;28;20969;-77
2023/05/13 04:00:41;;;;;;;5.67;5.13;;;16.00;66.10;;;;;;5072809;28;20465;-76
2023/05/13 04:03:11;;;;;;;5.57;4.80;;;15.90;66.30;;;;;;5072792;28;20549;-76
2023/05/13 04:06:10;;;;;;;;;;;;;;;;;;;;;
2023/05/13 04:08:40;;;;;;;7.67;4.97;;;15.90;66.40;;;;;;5067977;28;21425;-75
2023/05/13 04:11:07;;;;;;;5.30;4.90;;;15.90;66.40;;;;;;5072710;28;20466;-76
2023/05/13 04:13:36;;;;;;;5.33;4.83;;;16.00;66.70;;;;;;5072307;28;20985;-75
2023/05/13 04:16:07;;;;;;;7.60;6.17;;;16.00;66.70;;;;;;5072747;28;20497;-76
2023/05/13 04:18:34;;;;;;;8.40;5.17;;;16.00;66.80;;;;;;5072101;28;20458;-74
2023/05/13 04:21:06;;;;;;;6.20;5.43;;;16.10;66.80;;;;;;5072838;28;20462;-75
2023/05/13 04:23:35;;;;;;;8.80;5.93;;;16.10;66.80;;;;;;5072524;28;20613;-76
2023/05/13 04:26:03;;;;;;;6.93;5.07;;;16.00;66.40;;;;;;5071748;28;20512;-76
2023/05/13 04:28:30;;;;;;;7.03;5.23;;;16.00;66.60;;;;;;5067766;28;20480;-76
2023/05/13 04:30:58;;;;;;;7.00;5.50;;;16.00;66.40;;;;;;5080318;28;20465;-77
2023/05/13 04:33:26;;;;;;;4.50;4.10;;;16.00;66.50;;;;;;5077247;28;20497;-76
2023/05/13 04:35:53;;;;;;;7.13;5.00;;;16.00;66.40;;;;;;5071727;28;20482;-76
2023/05/13 04:38:20;;;;;;;6.50;5.13;;;16.00;66.20;;;;;;5072596;28;20531;-76
2023/05/13 04:40:47;;;;;;;5.20;4.70;;;16.00;66.10;;;;;;5072135;28;20983;-75
2023/05/13 04:43:17;;;;;;;7.20;5.20;;;16.00;66.30;;;;;;5072066;28;20556;-77
2023/05/13 04:45:47;;;;;;;6.10;5.50;;;16.00;65.70;;;;;;5071746;28;20527;-77
2023/05/13 04:48:15;;;;;;;7.40;5.50;;;16.00;65.80;;;;;;5072671;28;20908;-76
2023/05/13 04:50:45;;;;;;;6.97;5.67;;;16.00;65.50;;;;;;5071968;28;20838;-76
2023/05/13 04:53:13;;;;;;;6.93;5.23;;;16.00;65.60;;;;;;5072503;28;20462;-76
2023/05/13 04:55:40;;;;;;;5.13;4.73;;;16.00;65.70;;;;;;5069461;28;20564;-76
2023/05/13 04:58:10;;;;;;;5.73;5.23;;;16.00;65.80;;;;;;5080717;28;20952;-76
2023/05/13 05:00:37;;;;;;;5.57;4.90;;;16.10;66.10;;;;;;5071972;28;20466;-76
2023/05/13 05:03:04;;;;;;;5.30;4.80;;;16.10;65.90;;;;;;5072328;28;20496;-77
2023/05/13 05:05:32;;;;;;;7.07;5.20;;;16.20;65.80;;;;;;5075517;28;20478;-77
2023/05/13 05:07:59;;;;;;;6.23;5.00;;;16.20;65.60;;;;;;5076189;28;20535;-76
2023/05/13 05:10:26;;;;;;;6.90;4.87;;;16.20;65.40;;;;;;5075426;28;20477;-76
2023/05/13 05:12:53;;;;;;;6.00;4.80;;;16.30;65.20;;;;;;5075529;28;20470;-76
2023/05/13 05:15:20;;;;;;;7.37;5.30;;;16.40;65.30;;;;;;5075956;28;20539;-77
2023/05/13 05:17:47;;;;;;;5.07;4.67;;;16.40;65.30;;;;;;5075231;28;20940;-76
2023/05/13 05:20:14;;;;;;;5.70;4.67;;;16.50;64.80;;;;;;5075332;28;20559;-76
2023/05/13 05:22:42;;;;;;;5.50;5.00;;;16.50;64.70;;;;;;5075047;28;20473;-76
2023/05/13 05:25:10;;;;;;;14.30;5.17;;;16.60;64.70;;;;;;5075150;28;20470;-76
2023/05/13 05:27:37;;;;;;;5.47;4.93;;;16.60;64.00;;;;;;5075493;28;20561;-75
2023/05/13 05:30:05;;;;;;;7.83;5.97;;;16.70;63.90;;;;;;5076171;28;20490;-76
2023/05/13 05:32:33;;;;;;;5.03;4.03;;;16.70;63.80;;;;;;5075716;28;20847;-76
2023/05/13 05:35:02;;;;;;;5.03;4.43;;;16.80;63.50;;;;;;5075954;28;20518;-76
2023/05/13 05:37:30;;;;;;;4.60;4.20;;;16.90;63.30;;;;;;5076329;28;20583;-76
2023/05/13 05:39:58;;;;;;;5.40;4.47;;;16.90;62.90;;;;;;5076638;28;20474;-76
2023/05/13 05:42:25;;;;;;;6.87;4.37;;;17.00;63.70;;;;;;5083943;28;20466;-76
2023/05/13 05:44:52;;;;;;;4.90;4.50;;;17.00;62.70;;;;;;5084164;28;20745;-76
2023/05/13 05:47:19;;;;;;;5.47;4.93;;;17.10;62.30;;;;;;5077064;28;20956;-76
2023/05/13 05:49:46;;;;;;;4.97;4.07;;;17.20;61.90;;;;;;5078575;28;20512;-75
2023/05/13 05:52:13;;;;;;;5.97;4.73;;;17.20;60.60;;;;;;5076902;28;20474;-76
2023/05/13 05:54:40;;;;;;;4.70;4.07;;;17.30;60.60;;;;;;5076412;28;20488;-75
2023/05/13 05:57:09;;;;;;;6.97;4.27;;;17.40;60.50;;;;;;5076684;28;20594;-76
2023/05/13 05:59:35;;;;;;;4.93;3.80;;;17.50;59.80;;;;;;5084313;28;20455;-76
2023/05/13 06:02:03;;;;;;;5.10;4.00;;;17.50;59.40;;;;;;5079674;28;20532;-76
2023/05/13 06:04:30;;;;;;;6.27;5.00;;;17.60;59.70;;;;;;5076491;28;20481;-75
2023/05/13 06:06:58;;;;;;;6.37;4.40;;;17.70;59.70;;;;;;5077778;28;20462;-75
2023/05/13 06:09:25;;;;;;;5.27;4.40;;;17.80;58.90;;;;;;5080690;28;20470;-75
2023/05/13 06:11:52;;;;;;;6.00;4.77;;;17.90;59.10;;;;;;5080371;28;20492;-75
2023/05/13 06:14:21;;;;;;;6.30;4.10;;;18.00;58.80;;;;;;5081886;28;20470;-75
2023/05/13 06:16:47;;;;;;;7.07;4.70;;;18.10;58.80;;;;;;5083593;28;20470;-75
2023/05/13 06:19:15;;;;;;;5.17;4.67;;;18.10;58.50;;;;;;5076931;28;21250;-76
2023/05/13 06:21:43;;;;;;;4.67;4.10;;;18.20;58.40;;;;;;5075216;28;20861;-76
2023/05/13 06:24:10;;;;;;;8.80;3.90;;;18.30;58.60;;;;;;5075711;28;20963;-75
2023/05/13 06:26:37;;;;;;;6.13;5.00;;;18.40;58.30;;;;;;5074504;28;20474;-75
2023/05/13 06:29:04;;;;;;;4.20;3.77;;;18.50;58.30;;;;;;5077129;28;20466;-75
2023/05/13 06:31:33;;;;;;;4.83;4.37;;;18.60;57.70;;;;;;5077593;28;20553;-76
2023/05/13 06:34:00;;;;;;;6.07;4.90;;;18.60;57.00;;;;;;5074746;28;20841;-76
2023/05/13 06:36:27;;;;;;;4.77;4.37;;;18.70;57.00;;;;;;5076096;28;20470;-76
2023/05/13 06:38:54;;;;;;;8.63;4.70;;;18.80;56.90;;;;;;5074723;28;20471;-76
2023/05/13 06:41:21;;;;;;;7.97;4.63;;;18.90;57.00;;;;;;5074228;28;20528;-75
2023/05/13 06:43:48;;;;;;;6.40;4.90;;;19.00;56.90;;;;;;5072114;28;20531;-77
2023/05/13 06:46:15;;;;;;;4.20;3.80;;;19.10;56.70;;;;;;5074572;28;20462;-75
2023/05/13 06:48:44;;;;;;;8.07;4.10;;;19.30;56.70;;;;;;5073758;28;20470;-75
2023/05/13 06:51:11;;;;;;;5.67;4.60;;;19.30;56.10;;;;;;5074446;28;20474;-76
2023/05/13 06:53:38;;;;;;;5.13;4.73;;;19.40;55.90;;;;;;5073909;28;20463;-76
2023/05/13 06:56:05;;;;;;;8.87;4.57;;;19.50;56.00;;;;;;5074114;28;20470;-75
2023/05/13 06:58:35;;;;;;;8.83;4.80;;;19.60;55.80;;;;;;5074141;28;20466;-75
2023/05/13 07:01:02;;;;;;;11.93;4.20;;;19.60;55.70;;;;;;5065446;28;20468;-75
2023/05/13 07:03:29;;;;;;;4.50;4.07;;;19.70;55.60;;;;;;5086293;28;20466;-76
2023/05/13 07:05:58;;;;;;;7.13;4.23;;;19.80;55.90;;;;;;5073582;28;20581;-75
2023/05/13 07:08:25;;;;;;;5.10;3.50;;;19.80;55.40;;;;;;5074162;28;21034;-75
2023/05/13 07:10:52;;;;;;;6.10;4.27;;;19.90;55.60;;;;;;5073227;28;20527;-76
2023/05/13 07:13:19;;;;;;;4.80;4.30;;;20.00;55.60;;;;;;5073689;28;20936;-75
2023/05/13 07:15:46;;;;;;;5.57;4.20;;;20.10;55.00;;;;;;5073620;28;20481;-75
2023/05/13 07:18:13;;;;;;;4.20;3.47;;;20.20;55.00;;;;;;5073664;28;20478;-76
2023/05/13 07:20:40;;;;;;;3.73;3.43;;;20.30;54.20;;;;;;5073506;28;20480;-76
2023/05/13 07:23:12;;;;;;;3.87;3.57;;;20.30;53.50;;;;;;5073216;28;20465;-77
2023/05/13 07:25:40;;;;;;;5.00;4.27;;;20.50;53.20;;;;;;5073259;28;20478;-76
2023/05/13 07:28:07;;;;;;;8.13;4.43;;;20.50;52.40;;;;;;5072610;28;20450;-77
2023/05/13 07:30:34;;;;;;;4.03;3.70;;;20.50;52.00;;;;;;5073666;28;20466;-76
2023/05/13 07:33:01;;;;;;;4.97;2.93;;;20.60;51.10;;;;;;5073064;28;20474;-76
2023/05/13 07:35:28;;;;;;;3.87;3.53;;;20.70;50.90;;;;;;5073046;28;20470;-77
2023/05/13 07:37:55;;;;;;;5.07;3.27;;;20.80;50.70;;;;;;5073072;28;20466;-75
2023/05/13 07:40:23;;;;;;;9.03;3.60;;;20.80;50.20;;;;;;5073291;28;20776;-75
2023/05/13 07:42:50;;;;;;;4.27;3.33;;;20.90;48.90;;;;;;5073115;28;20557;-75
2023/05/13 07:45:17;;;;;;;5.77;3.00;;;20.80;48.50;;;;;;5073394;28;20975;-75
2023/05/13 07:47:44;;;;;;;5.07;2.90;;;20.80;48.30;;;;;;5073252;28;20739;-75
2023/05/13 07:50:11;;;;;;;4.07;3.77;;;20.80;48.70;;;;;;5073212;28;20458;-76
2023/05/13 07:52:38;;;;;;;3.10;2.80;;;21.00;49.50;;;;;;5073499;28;20474;-76
2023/05/13 07:55:06;;;;;;;5.00;3.27;;;21.10;49.00;;;;;;5072365;28;20809;-75
2023/05/13 07:57:34;;;;;;;5.63;3.30;;;21.20;48.70;;;;;;5073140;28;20494;-75
2023/05/13 08:00:01;;;;;;;4.10;3.30;;;21.10;47.20;;;;;;5072430;28;20561;-76
2023/05/13 08:02:33;;;;;;;6.20;3.17;;;21.10;46.60;;;;;;5073114;28;20539;-76
2023/05/13 08:05:00;;;;;;;4.77;3.03;;;21.20;46.70;;;;;;5072564;28;20963;-76
2023/05/13 08:07:27;;;;;;;9.80;3.20;;;21.30;47.00;;;;;;5073020;28;20524;-76
2023/05/13 08:09:54;;;;;;;3.70;3.33;;;21.30;46.30;;;;;;5072536;28;20470;-76
2023/05/13 08:12:21;;;;;;;3.23;3.03;;;21.30;47.10;;;;;;5073125;28;20485;-77
2023/05/13 08:14:49;;;;;;;4.33;3.40;;;21.30;46.90;;;;;;5073001;28;20474;-76
2023/05/13 08:17:17;;;;;;;3.57;2.97;;;21.20;47.30;;;;;;5072166;28;20466;-77
2023/05/13 08:19:44;;;;;;;7.43;2.97;;;21.30;47.70;;;;;;5073055;28;20462;-75
2023/05/13 08:22:11;;;;;;;5.83;4.00;;;21.40;48.00;;;;;;5072266;28;20474;-75
2023/05/13 08:24:39;;;;;;;5.43;3.03;;;21.60;48.10;;;;;;5072676;28;20500;-77
2023/05/13 08:27:06;;;;;;;3.37;2.90;;;21.70;47.90;;;;;;5071980;28;20847;-76
2023/05/13 08:29:33;;;;;;;5.57;3.57;;;21.70;48.10;;;;;;5072602;28;20994;-76
2023/05/13 08:32:02;;;;;;;4.40;3.80;;;21.60;47.90;;;;;;5072205;28;20481;-76
2023/05/13 08:34:29;;;;;;;3.47;3.17;;;21.60;48.20;;;;;;5072295;28;20472;-76
2023/05/13 08:36:56;;;;;;;4.30;3.53;;;21.70;48.10;;;;;;5072146;28;20466;-77
2023/05/13 08:39:23;;;;;;;4.40;3.97;;;21.70;48.00;;;;;;5074506;28;20474;-78
2023/05/13 08:41:52;;;;;;;5.90;3.30;;;21.60;49.00;;;;;;5076822;28;20497;-76
2023/05/13 08:44:27;;;;;;;3.47;3.13;;;21.60;48.40;;;;;;5075981;28;20477;-75
2023/05/13 08:47:05;;;;;;;4.63;3.10;;;21.70;48.50;;;;;;5076437;28;20474;-76
2023/05/13 08:49:33;;;;;;;4.37;3.10;;;21.60;48.10;;;;;;5077066;28;20470;-77
2023/05/13 08:52:00;;;;;;;5.43;3.40;;;21.60;48.30;;;;;;5076749;28;20881;-76
2023/05/13 08:54:29;;;;;;;3.20;3.00;;;21.50;48.30;;;;;;5075935;28;20956;-75
2023/05/13 08:56:56;;;;;;;6.73;3.77;;;21.50;48.50;;;;;;5075802;28;20512;-75
2023/05/13 08:59:23;;;;;;;3.60;3.30;;;21.50;48.80;;;;;;5078584;28;20462;-76
2023/05/13 09:01:53;;;;;;;4.03;3.73;;;21.50;48.80;;;;;;5078280;28;20474;-78
2023/05/13 09:04:22;;;;;;;5.70;3.33;;;21.50;49.10;;;;;;5076690;28;20527;-75
2023/05/13 09:06:48;;;;;;;3.87;3.30;;;21.50;49.40;;;;;;5076861;28;20905;-76
2023/05/13 09:09:15;;;;;;;6.13;4.53;;;21.40;48.30;;;;;;5076492;28;20470;-77
2023/05/13 09:11:43;;;;;;;3.67;3.37;;;21.50;48.30;;;;;;5075934;28;20806;-76
2023/05/13 09:14:11;;;;;;;5.47;3.50;;;21.40;48.40;;;;;;5077663;28;20518;-76
2023/05/13 09:16:38;;;;;;;4.07;3.60;;;21.40;48.10;;;;;;5079550;28;20927;-76
2023/05/13 09:19:10;;;;;;;8.13;3.67;;;21.40;47.90;;;;;;5075370;28;20531;-76
2023/05/13 09:21:41;;;;;;;3.07;2.87;;;21.40;47.90;;;;;;5076277;28;20472;-76
2023/05/13 09:24:10;;;;;;;5.30;3.50;;;21.40;47.70;;;;;;5075672;28;20549;-74
2023/05/13 09:26:38;;;;;;;4.77;3.40;;;21.50;47.80;;;;;;5076468;28;20477;-76
2023/05/13 09:29:16;;;;;;;4.20;3.80;;;21.40;47.40;;;;;;5075969;28;20454;-75
2023/05/13 09:31:44;;;;;;;10.63;3.80;;;21.50;48.00;;;;;;5076608;28;20473;-77
2023/05/13 09:34:11;;;;;;;6.43;3.30;;;21.50;47.50;;;;;;5076639;28;20562;-76
2023/05/13 09:36:40;;;;;;;3.47;3.23;;;21.60;47.60;;;;;;5076297;28;20557;-76
2023/05/13 09:39:07;;;;;;;8.40;3.53;;;21.50;47.60;;;;;;5075457;28;20497;-76
2023/05/13 09:41:34;;;;;;;5.73;3.10;;;21.60;47.60;;;;;;5076441;28;20474;-77
2023/05/13 09:44:04;;;;;;;3.73;3.17;;;21.60;47.40;;;;;;5075127;28;20815;-76
2023/05/13 09:46:33;;;;;;;4.47;2.53;;;21.60;47.40;;;;;;5076493;28;20721;-77
2023/05/13 09:49:00;;;;;;;10.33;5.00;;;21.70;47.40;;;;;;5075619;28;21030;-77
2023/05/13 09:51:29;;;;;;;6.50;2.93;;;21.70;45.40;;;;;;5075613;28;20466;-75
2023/05/13 09:54:03;;;;;;;8.93;2.90;;;21.70;45.30;;;;;;5074863;28;20470;-75
2023/05/13 09:56:33;;;;;;;7.30;3.90;;;21.80;45.40;;;;;;5074871;28;20962;-76
2023/05/13 09:59:01;;;;;;;3.40;3.17;;;21.90;45.80;;;;;;5075298;28;20861;-76
2023/05/13 10:01:29;;;;;;;6.57;3.17;;;22.10;45.80;;;;;;5076326;28;20462;-76
2023/05/13 10:03:57;;;;;;;3.93;3.20;;;22.10;45.80;;;;;;5075228;28;20474;-76
2023/05/13 10:06:27;;;;;;;6.43;3.63;;;22.10;44.70;;;;;;5075627;28;20470;-76
2023/05/13 10:08:55;;;;;;;3.67;3.37;;;22.20;44.30;;;;;;5075971;28;20473;-78
2023/05/13 10:11:26;;;;;;;6.90;3.10;;;22.20;43.90;;;;;;5076132;28;20803;-75
2023/05/13 10:14:00;;;;;;;4.27;3.07;;;22.20;43.40;;;;;;5073998;28;20474;-76
2023/05/13 10:16:29;;;;;;;2.70;2.50;;;22.30;43.20;;;;;;5075664;28;20469;-77
2023/05/13 10:18:57;;;;;;;5.03;2.40;;;22.40;43.10;;;;;;5078963;28;20471;-76
2023/05/13 10:21:25;;;;;;;4.40;2.63;;;22.30;42.70;;;;;;5077052;28;20561;-76
2023/05/13 10:23:52;;;;;;;5.30;3.47;;;22.40;43.20;;;;;;5076177;28;20482;-76
2023/05/13 10:26:20;;;;;;;4.90;3.07;;;22.40;42.20;;;;;;5075650;28;20466;-76
2023/05/13 10:28:50;;;;;;;4.13;3.17;;;22.40;42.20;;;;;;5075806;28;20550;-75
2023/05/13 10:31:20;;;;;;;7.40;3.13;;;22.50;42.50;;;;;;5075007;28;20944;-76
2023/05/13 10:33:47;;;;;;;3.00;2.77;;;22.50;41.80;;;;;;5075264;28;20527;-74
2023/05/13 10:36:32;;;;;;;5.87;3.33;;;22.60;42.20;;;;;;5073963;28;20841;-75
2023/05/13 10:39:13;;;;;;;3.50;2.97;;;22.70;43.10;;;;;;5074446;28;20759;-75
2023/05/13 10:42:17;;;;;;;3.17;2.93;;;22.60;42.30;;;;;;5074452;28;20462;-76
2023/05/13 10:44:45;;;;;;;4.73;3.20;;;22.60;42.50;;;;;;5065870;28;20480;-75
2023/05/13 10:47:13;;;;;;;3.90;3.10;;;22.60;42.90;;;;;;5074624;28;20897;-75
2023/05/13 10:49:40;;;;;;;4.27;3.10;;;22.60;43.00;;;;;;5074540;28;20458;-76
2023/05/13 10:52:14;;;;;;;5.67;3.20;;;22.50;42.80;;;;;;5074583;28;20473;-75
2023/05/13 10:54:41;;;;;;;3.43;3.10;;;22.60;41.90;;;;;;5073764;28;20527;-75
2023/05/13 10:57:09;;;;;;;3.20;3.00;;;22.50;42.20;;;;;;5074503;28;20466;-76
2023/05/13 10:59:37;;;;;;;3.90;2.67;;;22.60;42.40;;;;;;5074396;28;20553;-75
2023/05/13 11:02:21;;;;;;;4.20;3.10;;;22.60;42.50;;;;;;5073300;28;20458;-75
2023/05/13 11:04:58;;;;;;;4.67;2.70;;;22.60;42.10;;;;;;5073117;28;20566;-75
2023/05/13 11:07:29;;;;;;;4.20;2.53;;;22.60;41.00;;;;;;5074755;28;20470;-74
2023/05/13 11:09:56;;;;;;;3.60;3.40;;;22.70;40.50;;;;;;5075315;28;20979;-76
2023/05/13 11:12:23;;;;;;;4.47;2.73;;;22.60;40.30;;;;;;5074126;28;20470;-76
2023/05/13 11:14:50;;;;;;;5.10;3.03;;;22.70;40.20;;;;;;5073586;28;20474;-75
2023/05/13 11:17:20;;;;;;;5.80;3.27;;;22.60;40.20;;;;;;5073622;28;20496;-75
2023/05/13 11:19:48;;;;;;;2.90;2.33;;;22.60;40.00;;;;;;5073323;28;20474;-75
2023/05/13 11:22:18;;;;;;;2.83;2.63;;;22.50;40.40;;;;;;5073514;28;20527;-76
2023/05/13 11:24:47;;;;;;;3.80;3.50;;;22.50;40.30;;;;;;5073696;28;20470;-76
2023/05/13 11:27:16;;;;;;;3.20;2.47;;;22.50;41.00;;;;;;5073002;28;20474;-76
2023/05/13 11:29:49;;;;;;;3.43;2.80;;;22.50;41.20;;;;;;5073679;28;20477;-76
2023/05/13 11:32:36;;;;;;;2.63;2.30;;;22.50;41.10;;;;;;5073172;28;20960;-75
2023/05/13 11:35:05;;;;;;;3.90;2.60;;;22.50;40.30;;;;;;5073470;28;20943;-74
2023/05/13 11:37:33;;;;;;;3.33;2.60;;;22.60;39.70;;;;;;5073639;28;20462;-74
2023/05/13 11:40:00;;;;;;;4.87;3.17;;;22.50;40.10;;;;;;5074035;28;20528;-76
2023/05/13 11:42:28;;;;;;;3.53;2.70;;;22.60;40.60;;;;;;5073035;28;20955;-76
2023/05/13 11:44:55;;;;;;;6.60;3.07;;;22.50;40.30;;;;;;5073670;28;20575;-76
2023/05/13 11:47:27;;;;;;;5.80;2.80;;;22.60;40.90;;;;;;5073265;28;20470;-76
2023/05/13 11:49:56;;;;;;;5.83;3.10;;;22.50;41.30;;;;;;5073754;28;20824;-76
2023/05/13 11:52:28;;;;;;;3.43;3.13;;;22.60;41.50;;;;;;5073167;28;20531;-76
2023/05/13 11:54:57;;;;;;;6.93;2.70;;;22.60;41.50;;;;;;5073995;28;20916;-76
2023/05/13 11:57:25;;;;;;;4.00;2.93;;;22.60;41.10;;;;;;5073520;28;20852;-76
2023/05/13 11:59:57;;;;;;;4.23;2.60;;;22.60;41.10;;;;;;5073845;28;20474;-76
2023/05/13 12:02:25;;;;;;;3.00;2.60;;;22.70;40.70;;;;;;5073569;28;20803;-76
2023/05/13 12:04:52;;;;;;;3.00;2.43;;;22.70;40.90;;;;;;5073675;28;20898;-76
2023/05/13 12:07:21;;;;;;;6.13;3.23;;;22.70;40.90;;;;;;5072349;28;20492;-77
2023/05/13 12:09:50;;;;;;;3.50;2.63;;;22.70;41.20;;;;;;5072391;28;20467;-77
2023/05/13 12:12:18;;;;;;;4.07;3.30;;;22.60;41.10;;;;;;5072631;28;20462;-76
2023/05/13 12:14:48;;;;;;;4.70;2.73;;;22.70;40.90;;;;;;5088381;28;20472;-75
2023/05/13 12:17:16;;;;;;;3.20;2.60;;;22.80;40.70;;;;;;5093887;28;20465;-76
2023/05/13 12:20:11;;;;;;;6.00;2.80;;;22.80;40.90;;;;;;5093226;28;20469;-75
2023/05/13 12:22:49;;;;;;;5.77;2.97;;;22.90;40.70;;;;;;5094140;28;20943;-75
2023/05/13 12:25:40;;;;;;;5.70;3.00;;;22.90;40.50;;;;;;5098091;28;20871;-75
2023/05/13 12:28:08;;;;;;;4.77;3.13;;;22.90;40.10;;;;;;5098230;28;20938;-75
2023/05/13 12:30:36;;;;;;;5.10;2.70;;;22.90;39.00;;;;;;5112405;28;20929;-76
2023/05/13 12:33:04;;;;;;;3.23;2.47;;;22.80;38.90;;;;;;5098731;28;20488;-76
2023/05/13 12:35:31;;;;;;;6.43;3.23;;;22.90;39.20;;;;;;5120031;28;20464;-75
2023/05/13 12:38:00;;;;;;;3.77;2.60;;;22.90;39.70;;;;;;5120722;28;20452;-77
2023/05/13 12:40:27;;;;;;;2.80;2.60;;;22.90;40.20;;;;;;5120665;28;21363;-77
2023/05/13 12:42:58;;;;;;;4.73;3.10;;;23.00;40.30;;;;;;5101441;28;20462;-77
2023/05/13 12:45:28;;;;;;;5.07;3.07;;;23.10;40.40;;;;;;5093863;28;20496;-76
2023/05/13 12:47:56;;;;;;;4.27;2.87;;;23.20;40.30;;;;;;5091503;28;20476;-76
2023/05/13 12:50:23;;;;;;;5.40;2.87;;;23.20;40.60;;;;;;5072272;28;20549;-76
2023/05/13 12:52:50;;;;;;;5.13;3.30;;;23.30;40.70;;;;;;5074251;28;20494;-76
2023/05/13 12:55:17;;;;;;;5.97;2.90;;;23.40;41.20;;;;;;5072766;28;20531;-75